Time;durP1;ratioP1;P1;durP2;ratioP2;P2;SDS_P1;SDS_P2;PMS_P1;PMS_P2;Temp;Humidity;BMP_temperature;BMP_pressure;BME280_temperature;BME280_humidity;BME280_pressure;Samples;Min_cycle;Max_cycle;Signal;HPM_P1;HPM_P2
2023/05/05 00:02:00;;;;;;;11.65;4.88;;;13.60;99.90;;;;;;7373067;19;20014;-63
2023/05/05 00:04:26;;;;;;;9.05;4.70;;;13.60;99.90;;;;;;7374916;19;20596;-63
2023/05/05 00:06:52;;;;;;;8.20;5.25;;;13.50;99.90;;;;;;7373276;19;20014;-62
2023/05/05 00:09:19;;;;;;;7.82;4.65;;;13.50;99.90;;;;;;7376246;19;20067;-63
2023/05/05 00:11:45;;;;;;;11.15;5.32;;;13.50;99.90;;;;;;7376197;19;20044;-63
2023/05/05 00:14:11;;;;;;;10.00;5.65;;;13.50;99.90;;;;;;7370121;19;20793;-64
2023/05/05 00:16:37;;;;;;;9.32;5.53;;;13.50;99.90;;;;;;7371921;19;20015;-63
2023/05/05 00:19:04;;;;;;;9.57;5.22;;;13.50;99.90;;;;;;7365640;19;20660;-63
2023/05/05 00:21:30;;;;;;;10.55;6.28;;;13.40;99.90;;;;;;7374216;19;20514;-63
2023/05/05 00:23:56;;;;;;;13.10;5.85;;;13.40;99.90;;;;;;7372455;19;20469;-63
2023/05/05 00:26:23;;;;;;;12.18;5.50;;;13.40;99.90;;;;;;7371098;19;20026;-63
2023/05/05 00:28:52;;;;;;;9.93;6.25;;;13.40;99.90;;;;;;7371157;19;20360;-62
2023/05/05 00:31:18;;;;;;;8.48;5.72;;;13.40;99.90;;;;;;7371570;19;20018;-63
2023/05/05 00:33:44;;;;;;;10.40;5.45;;;13.40;99.90;;;;;;7373512;19;20022;-63
2023/05/05 00:36:10;;;;;;;9.82;6.15;;;13.40;99.90;;;;;;7371343;19;20040;-62
2023/05/05 00:38:37;;;;;;;10.55;5.95;;;13.40;99.90;;;;;;7374247;19;20054;-62
2023/05/05 00:41:03;;;;;;;9.95;6.05;;;13.40;99.90;;;;;;7372634;19;20018;-63
2023/05/05 00:43:29;;;;;;;12.70;6.43;;;13.40;99.90;;;;;;7376226;19;20780;-62
2023/05/05 00:46:14;;;;;;;9.50;6.20;;;13.40;99.90;;;;;;7374244;19;20018;-63
2023/05/05 00:48:40;;;;;;;9.55;6.53;;;13.40;99.90;;;;;;7371177;19;20014;-63
2023/05/05 00:51:08;;;;;;;11.13;5.82;;;13.30;99.90;;;;;;7370454;19;20191;-63
2023/05/05 00:53:34;;;;;;;11.60;7.10;;;13.30;99.90;;;;;;7373178;19;20038;-62
2023/05/05 00:56:01;;;;;;;9.00;5.65;;;13.30;99.90;;;;;;7372169;19;20014;-62
2023/05/05 00:58:29;;;;;;;9.75;5.90;;;13.30;99.90;;;;;;7373714;19;20017;-63
2023/05/05 01:00:55;;;;;;;10.80;5.68;;;13.30;99.90;;;;;;7370863;19;20086;-63
2023/05/05 01:03:21;;;;;;;10.55;6.40;;;13.20;99.90;;;;;;7373602;19;20010;-63
2023/05/05 01:06:03;;;;;;;10.05;6.43;;;13.20;99.90;;;;;;7374051;19;20050;-63
2023/05/05 01:08:35;;;;;;;;;;;13.20;99.90;;;;;;7371035;19;20842;-63
2023/05/05 01:11:21;;;;;;;10.60;6.40;;;13.20;99.90;;;;;;7369054;19;19924;-62
2023/05/05 01:14:21;;;;;;;10.57;7.20;;;13.20;99.90;;;;;;7363275;19;20023;-63
2023/05/05 01:16:58;;;;;;;9.48;6.75;;;13.10;99.90;;;;;;7371667;19;20018;-63
2023/05/05 01:19:46;;;;;;;10.57;6.30;;;13.10;99.90;;;;;;7368499;19;20875;-63
2023/05/05 01:22:20;;;;;;;12.30;6.45;;;13.10;99.90;;;;;;7366467;19;20636;-62
2023/05/05 01:25:09;;;;;;;8.15;5.88;;;13.10;99.90;;;;;;7368213;19;20022;-62
2023/05/05 01:27:54;;;;;;;9.25;6.13;;;13.00;99.90;;;;;;7373709;19;20018;-63
2023/05/05 01:30:50;;;;;;;9.88;6.10;;;13.00;99.90;;;;;;7367091;19;20006;-63
2023/05/05 01:33:23;;;;;;;12.38;6.63;;;13.00;99.90;;;;;;7368998;19;20018;-62
2023/05/05 01:35:55;;;;;;;10.02;6.05;;;13.00;99.90;;;;;;7373368;19;21059;-62
2023/05/05 01:38:25;;;;;;;9.13;6.10;;;13.00;99.90;;;;;;7372248;19;20022;-61
2023/05/05 01:41:00;;;;;;;12.10;6.63;;;13.00;99.90;;;;;;7370689;19;20018;-62
2023/05/05 01:43:30;;;;;;;8.63;6.65;;;13.00;99.90;;;;;;7368411;19;20018;-62
2023/05/05 01:45:58;;;;;;;11.20;5.93;;;13.00;99.90;;;;;;7371279;19;20482;-62
2023/05/05 01:48:25;;;;;;;9.95;6.68;;;13.00;99.90;;;;;;7370450;19;20018;-62
2023/05/05 01:50:52;;;;;;;13.38;6.22;;;13.00;99.90;;;;;;7369026;19;20011;-62
2023/05/05 01:53:21;;;;;;;10.43;6.70;;;13.00;99.90;;;;;;7365441;19;20042;-62
2023/05/05 01:55:49;;;;;;;7.43;5.60;;;12.90;99.90;;;;;;7369092;19;20018;-62
2023/05/05 01:58:17;;;;;;;11.70;6.05;;;12.90;99.90;;;;;;7370420;19;20022;-61
2023/05/05 02:00:43;;;;;;;9.07;6.63;;;12.90;99.90;;;;;;7370238;19;20605;-62
2023/05/05 02:03:12;;;;;;;12.75;7.05;;;12.90;99.90;;;;;;7368722;19;20113;-62
2023/05/05 02:05:40;;;;;;;9.52;6.50;;;12.90;99.90;;;;;;7371218;19;20028;-62
2023/05/05 02:08:08;;;;;;;8.60;6.18;;;12.80;99.90;;;;;;7369390;19;20027;-63
2023/05/05 02:10:36;;;;;;;7.68;5.80;;;12.80;99.90;;;;;;7368454;19;20018;-63
2023/05/05 02:13:03;;;;;;;12.23;7.45;;;12.80;99.90;;;;;;7365141;19;20022;-63
2023/05/05 02:15:31;;;;;;;6.18;5.32;;;12.70;99.90;;;;;;7372929;19;20695;-63
2023/05/05 02:17:59;;;;;;;7.75;6.38;;;12.80;99.90;;;;;;7376723;19;20019;-63
2023/05/05 02:20:27;;;;;;;12.40;6.57;;;12.80;99.90;;;;;;7381567;19;20078;-63
2023/05/05 02:22:54;;;;;;;9.55;6.47;;;12.70;99.90;;;;;;7376806;19;20018;-63
2023/05/05 02:25:24;;;;;;;7.57;5.88;;;12.70;99.90;;;;;;7379572;19;20019;-63
2023/05/05 02:27:55;;;;;;;10.02;6.32;;;12.70;99.90;;;;;;7376353;19;21034;-63
2023/05/05 02:30:23;;;;;;;12.25;6.45;;;12.70;99.90;;;;;;7375040;19;20493;-62
2023/05/05 02:32:54;;;;;;;10.20;6.57;;;12.70;99.90;;;;;;7374958;19;20024;-62
2023/05/05 02:35:32;;;;;;;9.07;6.22;;;12.70;99.90;;;;;;7376166;19;20623;-62
2023/05/05 02:38:04;;;;;;;12.55;6.43;;;12.60;99.90;;;;;;7374833;19;20494;-61
2023/05/05 02:40:37;;;;;;;11.73;5.85;;;12.60;99.90;;;;;;7378073;19;20022;-61
2023/05/05 02:43:08;;;;;;;10.23;6.07;;;12.60;99.90;;;;;;7372316;19;20025;-62
2023/05/05 02:45:34;;;;;;;12.07;6.50;;;12.60;99.90;;;;;;7374741;19;20083;-63
2023/05/05 02:48:02;;;;;;;9.93;5.97;;;12.60;99.90;;;;;;7372105;19;20017;-61
2023/05/05 02:50:31;;;;;;;9.25;6.15;;;12.50;99.90;;;;;;7375849;19;20018;-63
2023/05/05 02:53:08;;;;;;;10.35;6.10;;;12.60;99.90;;;;;;7369344;19;20521;-63
2023/05/05 02:55:49;;;;;;;8.32;6.53;;;12.50;99.90;;;;;;7377416;19;20870;-63
2023/05/05 02:58:21;;;;;;;8.25;6.25;;;12.50;99.90;;;;;;7375573;19;20526;-63
2023/05/05 03:01:06;;;;;;;9.02;6.05;;;12.50;99.90;;;;;;7374639;19;20029;-63
2023/05/05 03:03:49;;;;;;;11.43;7.28;;;12.40;99.90;;;;;;7375945;19;20051;-63
2023/05/05 03:06:21;;;;;;;7.35;5.90;;;12.40;99.90;;;;;;7376637;19;20014;-63
2023/05/05 03:09:10;;;;;;;11.90;6.80;;;12.30;99.90;;;;;;7375995;19;20019;-63
2023/05/05 03:11:45;;;;;;;8.23;6.82;;;12.30;99.90;;;;;;7372654;19;20058;-63
2023/05/05 03:14:16;;;;;;;8.95;6.80;;;12.20;99.90;;;;;;7372162;19;20435;-63
2023/05/05 03:16:43;;;;;;;11.77;7.20;;;12.20;99.90;;;;;;7376536;19;20030;-63
2023/05/05 03:19:12;;;;;;;9.75;7.65;;;12.20;99.90;;;;;;7374301;19;20021;-63
2023/05/05 03:21:40;;;;;;;9.15;6.82;;;12.20;99.90;;;;;;7375639;19;20064;-62
2023/05/05 03:24:13;;;;;;;10.27;7.35;;;12.10;99.90;;;;;;7375219;19;20022;-63
2023/05/05 03:26:41;;;;;;;9.27;7.00;;;12.10;99.90;;;;;;7372287;19;20033;-63
2023/05/05 03:29:08;;;;;;;8.95;6.75;;;12.00;99.90;;;;;;7374400;19;20017;-63
2023/05/05 03:31:38;;;;;;;10.88;8.25;;;12.10;99.90;;;;;;7374705;19;20019;-63
2023/05/05 03:34:06;;;;;;;13.95;7.90;;;12.00;99.90;;;;;;7374861;19;20027;-63
2023/05/05 03:36:38;;;;;;;15.52;7.72;;;12.10;99.90;;;;;;7374816;19;20060;-63
2023/05/05 03:39:05;;;;;;;10.82;7.65;;;12.10;99.90;;;;;;7373457;19;20041;-63
2023/05/05 03:41:33;;;;;;;13.13;8.10;;;12.10;99.90;;;;;;7376381;19;20470;-63
2023/05/05 03:43:59;;;;;;;10.98;8.43;;;12.10;99.90;;;;;;7373965;19;20485;-63
2023/05/05 03:46:26;;;;;;;8.85;7.13;;;12.20;99.90;;;;;;7375288;19;20021;-63
2023/05/05 03:48:55;;;;;;;10.55;7.97;;;12.10;99.90;;;;;;7373960;19;20024;-63
2023/05/05 03:51:23;;;;;;;12.07;8.30;;;12.10;99.90;;;;;;7374951;19;20026;-62
2023/05/05 03:53:52;;;;;;;11.25;7.68;;;12.10;99.90;;;;;;7373291;19;20014;-63
2023/05/05 03:56:19;;;;;;;16.15;8.13;;;12.10;99.90;;;;;;7373196;19;20022;-63
2023/05/05 03:58:45;;;;;;;12.13;8.32;;;12.10;99.90;;;;;;7374179;19;20056;-63
2023/05/05 04:01:12;;;;;;;14.27;8.25;;;12.10;99.90;;;;;;7373438;19;20030;-63
2023/05/05 04:03:39;;;;;;;11.52;8.63;;;12.10;99.90;;;;;;7374691;19;20052;-63
2023/05/05 04:06:05;;;;;;;13.90;9.38;;;12.00;99.90;;;;;;7371416;19;20007;-63
2023/05/05 04:08:32;;;;;;;13.07;9.43;;;12.00;99.90;;;;;;7372981;19;20516;-63
2023/05/05 04:11:01;;;;;;;10.63;8.93;;;12.00;99.90;;;;;;7369199;19;20033;-63
2023/05/05 04:13:28;;;;;;;13.57;8.98;;;12.00;99.90;;;;;;7370889;19;20093;-62
2023/05/05 04:15:55;;;;;;;14.65;10.13;;;12.00;99.90;;;;;;7372894;19;20652;-63
2023/05/05 04:18:22;;;;;;;12.40;9.63;;;12.00;99.90;;;;;;7371726;19;20018;-63
2023/05/05 04:20:48;;;;;;;13.23;8.32;;;12.00;99.90;;;;;;7372104;19;20019;-63
2023/05/05 04:23:15;;;;;;;12.75;8.18;;;12.00;99.90;;;;;;7371309;19;20015;-63
2023/05/05 04:25:42;;;;;;;10.70;8.77;;;12.00;99.90;;;;;;7370807;19;20034;-63
2023/05/05 04:28:10;;;;;;;11.00;9.23;;;12.00;99.90;;;;;;7363843;19;20381;-63
2023/05/05 04:30:37;;;;;;;12.20;8.85;;;12.00;99.90;;;;;;7372806;19;20513;-62
2023/05/05 04:33:04;;;;;;;12.73;9.35;;;12.00;99.90;;;;;;7368277;19;20026;-62
2023/05/05 04:35:31;;;;;;;13.57;9.15;;;12.00;99.90;;;;;;7372230;19;20018;-62
2023/05/05 04:37:58;;;;;;;10.27;9.00;;;12.00;99.90;;;;;;7364167;19;21816;-62
2023/05/05 04:40:25;;;;;;;10.57;8.88;;;12.00;99.90;;;;;;7370278;19;20481;-62
2023/05/05 04:42:52;;;;;;;14.27;8.82;;;12.00;99.90;;;;;;7368660;19;20017;-62
2023/05/05 04:45:18;;;;;;;11.68;8.10;;;12.00;99.90;;;;;;7371823;19;20018;-61
2023/05/05 04:47:45;;;;;;;13.00;8.50;;;12.00;99.90;;;;;;7369846;19;20022;-61
2023/05/05 04:50:12;;;;;;;10.90;8.07;;;12.00;99.90;;;;;;7371878;19;20493;-62
2023/05/05 04:52:39;;;;;;;10.95;8.65;;;12.00;99.90;;;;;;7372037;19;21010;-62
2023/05/05 04:55:07;;;;;;;13.27;8.13;;;12.00;99.90;;;;;;7371981;19;20771;-61
2023/05/05 04:57:33;;;;;;;10.63;7.70;;;12.00;99.90;;;;;;7367584;19;20063;-62
2023/05/05 05:00:00;;;;;;;14.48;8.55;;;12.00;99.90;;;;;;7369443;19;20585;-62
2023/05/05 05:02:26;;;;;;;10.70;7.45;;;12.00;99.90;;;;;;7372412;19;20015;-62
2023/05/05 05:04:52;;;;;;;10.57;7.80;;;12.00;99.90;;;;;;7371561;19;20078;-62
2023/05/05 05:07:19;;;;;;;10.90;8.20;;;12.00;99.90;;;;;;7372227;19;20026;-62
2023/05/05 05:09:45;;;;;;;14.45;8.95;;;12.00;99.90;;;;;;7373774;19;20478;-62
2023/05/05 05:12:11;;;;;;;11.88;7.90;;;12.00;99.90;;;;;;7368689;19;20581;-62
2023/05/05 05:14:38;;;;;;;13.48;8.88;;;12.00;99.90;;;;;;7370045;19;20019;-62
2023/05/05 05:17:05;;;;;;;15.43;9.40;;;12.00;99.90;;;;;;7370541;19;20027;-62
2023/05/05 05:19:32;;;;;;;9.93;7.25;;;12.00;99.90;;;;;;7369508;19;20071;-63
2023/05/05 05:21:59;;;;;;;9.93;7.40;;;12.00;99.90;;;;;;7368853;19;20018;-62
2023/05/05 05:24:26;;;;;;;12.75;8.35;;;11.90;99.90;;;;;;7369690;19;20432;-62
2023/05/05 05:26:53;;;;;;;13.73;8.48;;;12.00;99.90;;;;;;7370465;19;20023;-61
2023/05/05 05:29:19;;;;;;;10.63;8.32;;;12.00;99.90;;;;;;7370458;19;20886;-62
2023/05/05 05:31:47;;;;;;;11.45;7.93;;;12.00;99.90;;;;;;7369321;19;20014;-61
2023/05/05 05:34:14;;;;;;;13.82;8.43;;;12.00;99.90;;;;;;7371953;19;20165;-62
2023/05/05 05:36:41;;;;;;;10.07;8.18;;;12.00;99.90;;;;;;7372635;19;20015;-62
2023/05/05 05:39:07;;;;;;;12.13;8.93;;;12.00;99.90;;;;;;7368312;19;20034;-63
2023/05/05 05:41:33;;;;;;;10.68;8.50;;;12.00;99.90;;;;;;7366191;19;20078;-63
2023/05/05 05:44:00;;;;;;;10.93;9.27;;;12.10;99.90;;;;;;7364761;19;20011;-63
2023/05/05 05:46:27;;;;;;;13.63;9.35;;;12.20;99.90;;;;;;7368313;19;20474;-62
2023/05/05 05:48:54;;;;;;;9.63;8.63;;;12.30;99.90;;;;;;7367506;19;20022;-63
2023/05/05 05:51:20;;;;;;;11.85;9.20;;;12.40;99.90;;;;;;7369008;19;20661;-62
2023/05/05 05:53:48;;;;;;;13.80;9.18;;;12.60;99.90;;;;;;7367015;19;20037;-62
2023/05/05 05:56:14;;;;;;;11.20;9.20;;;12.80;99.90;;;;;;7370146;19;20043;-62
2023/05/05 05:58:41;;;;;;;10.98;8.48;;;13.00;99.90;;;;;;7370156;19;20029;-62
2023/05/05 06:01:08;;;;;;;15.35;9.57;;;13.10;99.90;;;;;;7368770;19;20030;-61
2023/05/05 06:03:35;;;;;;;12.60;8.43;;;13.30;99.90;;;;;;7368176;19;20054;-60
2023/05/05 06:06:01;;;;;;;13.80;8.50;;;13.40;99.90;;;;;;7370071;19;20025;-62
2023/05/05 06:08:31;;;;;;;11.23;8.80;;;13.40;99.90;;;;;;7371472;19;20023;-62
2023/05/05 06:10:59;;;;;;;9.43;8.15;;;13.40;99.90;;;;;;7368443;19;20078;-62
2023/05/05 06:13:25;;;;;;;14.13;8.82;;;13.20;99.90;;;;;;7372584;19;20383;-63
2023/05/05 06:15:52;;;;;;;13.05;9.45;;;13.20;99.90;;;;;;7376297;19;20030;-63
2023/05/05 06:18:19;;;;;;;11.02;9.23;;;13.40;99.90;;;;;;7375252;19;20028;-63
2023/05/05 06:20:49;;;;;;;12.00;8.75;;;13.70;99.90;;;;;;7374118;19;20600;-61
2023/05/05 06:23:16;;;;;;;10.18;9.07;;;14.00;99.90;;;;;;7373308;19;20019;-62
2023/05/05 06:25:48;;;;;;;10.75;9.15;;;14.20;99.90;;;;;;7373499;19;20026;-62
2023/05/05 06:28:15;;;;;;;11.43;8.40;;;14.30;99.90;;;;;;7376058;19;20051;-63
2023/05/05 06:30:41;;;;;;;12.00;8.68;;;14.50;99.90;;;;;;7374523;19;20018;-63
2023/05/05 06:33:08;;;;;;;12.30;8.18;;;14.50;99.90;;;;;;7369562;19;20581;-63
2023/05/05 06:35:36;;;;;;;12.38;8.52;;;14.50;99.90;;;;;;7374487;19;20883;-63
2023/05/05 06:38:02;;;;;;;12.68;8.95;;;14.50;99.90;;;;;;7374305;19;20058;-65
2023/05/05 06:40:28;;;;;;;13.82;8.55;;;14.40;99.90;;;;;;7374038;19;20614;-64
2023/05/05 06:42:55;;;;;;;13.25;9.38;;;14.30;99.90;;;;;;7373649;19;20029;-61
2023/05/05 06:45:27;;;;;;;10.50;9.45;;;14.30;99.90;;;;;;7369758;19;20022;-61
2023/05/05 06:47:53;;;;;;;9.25;8.25;;;14.30;99.90;;;;;;7372037;19;20053;-62
2023/05/05 06:50:20;;;;;;;45.47;37.75;;;14.60;99.90;;;;;;7368536;19;20014;-61
2023/05/05 06:52:47;;;;;;;106.70;95.03;;;14.90;99.90;;;;;;7366343;19;20677;-64
2023/05/05 06:55:13;;;;;;;14.52;12.52;;;15.20;99.90;;;;;;7370511;19;20026;-64
2023/05/05 06:57:39;;;;;;;12.43;11.07;;;15.60;99.90;;;;;;7372999;19;20135;-64
2023/05/05 07:00:10;;;;;;;16.10;13.27;;;15.90;99.90;;;;;;7371208;19;20039;-64
2023/05/05 07:02:37;;;;;;;12.85;8.73;;;16.20;99.90;;;;;;7370620;19;20021;-61
2023/05/05 07:05:04;;;;;;;11.40;10.20;;;16.50;99.90;;;;;;7369908;19;20018;-61
2023/05/05 07:07:31;;;;;;;14.82;9.95;;;16.90;99.90;;;;;;7364617;19;20037;-61
2023/05/05 07:09:57;;;;;;;12.05;9.65;;;17.10;99.90;;;;;;7373020;19;20790;-61
2023/05/05 07:12:24;;;;;;;14.13;12.63;;;17.30;99.90;;;;;;7370013;19;20026;-61
2023/05/05 07:14:50;;;;;;;14.43;9.70;;;17.40;99.90;;;;;;7375183;19;20045;-60
2023/05/05 07:17:17;;;;;;;11.38;8.77;;;17.80;99.90;;;;;;7375492;19;20011;-60
2023/05/05 07:19:43;;;;;;;13.48;10.45;;;18.20;99.90;;;;;;7375067;19;20022;-60
2023/05/05 07:22:10;;;;;;;12.52;11.40;;;18.50;99.90;;;;;;7370946;19;20645;-61
2023/05/05 07:24:36;;;;;;;18.60;14.10;;;18.40;99.90;;;;;;7376299;19;20024;-61
2023/05/05 07:27:02;;;;;;;16.55;14.82;;;18.10;99.90;;;;;;7372798;19;20022;-61
2023/05/05 07:29:29;;;;;;;12.52;10.60;;;18.40;99.90;;;;;;7376702;19;20018;-61
2023/05/05 07:31:56;;;;;;;11.70;8.80;;;18.60;99.90;;;;;;7368599;19;20098;-66
2023/05/05 07:34:22;;;;;;;12.57;9.10;;;18.80;99.90;;;;;;7369740;19;20019;-60
2023/05/05 07:36:49;;;;;;;12.60;8.75;;;18.90;99.90;;;;;;7372997;19;20051;-62
2023/05/05 07:39:18;;;;;;;10.23;8.27;;;19.20;99.90;;;;;;7369139;19;20019;-62
2023/05/05 07:41:44;;;;;;;11.57;9.07;;;19.20;99.90;;;;;;7373016;19;20780;-62
2023/05/05 07:44:10;;;;;;;12.52;8.77;;;19.50;99.90;;;;;;7372769;19;20018;-62
2023/05/05 07:46:37;;;;;;;12.27;8.35;;;19.60;99.90;;;;;;7373663;19;20379;-63
2023/05/05 07:49:03;;;;;;;13.85;9.27;;;19.90;99.90;;;;;;7373249;19;20022;-62
2023/05/05 07:51:30;;;;;;;10.32;8.73;;;20.10;99.90;;;;;;7377042;19;20489;-62
2023/05/05 07:53:57;;;;;;;10.23;9.20;;;20.40;99.90;;;;;;7374460;19;20018;-62
2023/05/05 07:56:23;;;;;;;10.23;9.05;;;20.50;99.00;;;;;;7365602;19;20395;-62
2023/05/05 07:58:49;;;;;;;11.95;8.32;;;20.30;95.90;;;;;;7373575;19;20098;-60
2023/05/05 08:01:19;;;;;;;12.60;10.68;;;20.50;95.80;;;;;;7371792;19;20021;-62
2023/05/05 08:03:45;;;;;;;10.38;9.30;;;20.50;90.90;;;;;;7372964;19;20018;-63
2023/05/05 08:06:15;;;;;;;10.75;8.90;;;20.30;94.70;;;;;;7371203;19;20577;-63
2023/05/05 08:08:41;;;;;;;12.68;9.23;;;20.80;92.80;;;;;;7373342;19;20022;-62
2023/05/05 08:11:08;;;;;;;10.68;9.50;;;21.00;90.00;;;;;;7371532;19;20521;-62
2023/05/05 08:13:34;;;;;;;15.55;9.82;;;21.10;77.30;;;;;;7367761;19;20078;-62
2023/05/05 08:16:00;;;;;;;14.30;10.50;;;21.00;85.30;;;;;;7368649;19;20018;-62
2023/05/05 08:18:27;;;;;;;10.80;9.70;;;20.90;86.50;;;;;;7374411;19;20073;-62
2023/05/05 08:20:53;;;;;;;11.95;10.57;;;21.30;84.20;;;;;;7372881;19;20101;-66
2023/05/05 08:23:20;;;;;;;10.88;9.82;;;21.50;83.30;;;;;;7369692;19;20022;-67
2023/05/05 08:25:49;;;;;;;11.25;10.18;;;21.80;81.40;;;;;;7371695;19;20074;-62
2023/05/05 08:28:15;;;;;;;11.75;10.55;;;22.20;77.70;;;;;;7371990;19;20033;-62
2023/05/05 08:30:42;;;;;;;13.70;10.93;;;22.10;75.60;;;;;;7372762;19;20789;-62
2023/05/05 08:33:08;;;;;;;12.15;10.45;;;22.30;76.30;;;;;;7366174;19;20014;-62
2023/05/05 08:35:35;;;;;;;14.93;10.88;;;22.70;77.00;;;;;;7370457;19;20089;-64
2023/05/05 08:38:02;;;;;;;13.63;11.23;;;22.30;76.00;;;;;;7370370;19;20010;-63
2023/05/05 08:40:35;;;;;;;12.18;10.63;;;22.00;76.90;;;;;;7375304;19;20022;-62
2023/05/05 08:43:02;;;;;;;14.32;11.43;;;22.20;78.20;;;;;;7371618;19;20022;-67
2023/05/05 08:45:29;;;;;;;15.05;12.30;;;22.40;80.30;;;;;;7370850;19;20056;-67
2023/05/05 08:47:56;;;;;;;14.02;12.65;;;22.20;81.10;;;;;;7372401;19;20041;-66
2023/05/05 08:50:27;;;;;;;13.55;12.10;;;22.40;83.80;;;;;;7372638;19;20018;-67
2023/05/05 08:53:17;;;;;;;;;;;22.40;83.20;;;;;;7369910;19;20664;-67
2023/05/05 08:55:50;;;;;;;14.48;12.82;;;22.30;91.80;;;;;;7369798;19;19934;-67
2023/05/05 08:58:18;;;;;;;14.70;13.18;;;22.30;93.40;;;;;;7373349;19;20038;-67
2023/05/05 09:00:45;;;;;;;14.52;12.25;;;22.70;87.10;;;;;;7372875;19;20018;-66
2023/05/05 09:03:12;;;;;;;14.93;12.13;;;22.70;85.30;;;;;;7369864;19;20078;-66
2023/05/05 09:05:40;;;;;;;15.23;13.88;;;22.70;90.90;;;;;;7372827;19;20026;-66
2023/05/05 09:08:08;;;;;;;15.90;14.20;;;23.20;87.20;;;;;;7370981;19;20406;-68
2023/05/05 09:10:35;;;;;;;15.32;13.68;;;23.20;80.90;;;;;;7372806;19;20050;-66
2023/05/05 09:13:05;;;;;;;15.90;13.55;;;23.40;76.10;;;;;;7369967;19;20014;-67
2023/05/05 09:15:32;;;;;;;16.30;14.48;;;23.50;77.20;;;;;;7373306;19;20377;-66
2023/05/05 09:18:00;;;;;;;17.05;13.57;;;23.60;74.90;;;;;;7371687;19;20010;-68
2023/05/05 09:20:36;;;;;;;16.60;14.85;;;23.20;74.40;;;;;;7369790;19;20041;-66
2023/05/05 09:23:11;;;;;;;14.07;12.77;;;22.80;76.90;;;;;;7368605;19;20038;-66
2023/05/05 09:25:38;;;;;;;14.23;12.82;;;23.00;78.20;;;;;;7377631;19;20019;-66
2023/05/05 09:28:09;;;;;;;16.58;13.70;;;23.10;79.20;;;;;;7377112;19;20026;-66
2023/05/05 09:30:37;;;;;;;16.58;12.63;;;23.70;80.10;;;;;;7381216;19;20014;-67
2023/05/05 09:33:03;;;;;;;15.30;13.80;;;23.90;78.80;;;;;;7373687;19;20022;-66
2023/05/05 09:35:48;;;;;;;13.40;11.70;;;23.90;74.40;;;;;;7380127;19;20022;-67
2023/05/05 09:38:15;;;;;;;13.55;11.57;;;23.50;72.60;;;;;;7375523;19;20022;-66
2023/05/05 09:40:47;;;;;;;15.32;12.13;;;23.30;73.70;;;;;;7377934;19;20019;-67
2023/05/05 09:43:18;;;;;;;14.70;13.25;;;23.20;76.80;;;;;;7378173;19;20022;-65
2023/05/05 09:45:45;;;;;;;14.40;12.43;;;22.90;82.10;;;;;;7378273;19;20827;-62
2023/05/05 09:48:31;;;;;;;14.10;12.77;;;23.20;83.70;;;;;;7375800;19;20015;-62
2023/05/05 09:50:58;;;;;;;14.15;12.68;;;23.10;84.10;;;;;;7375052;19;20018;-60
2023/05/05 09:53:25;;;;;;;15.55;13.43;;;22.70;89.10;;;;;;7369232;19;20071;-59
2023/05/05 09:55:56;;;;;;;27.90;25.02;;;22.60;93.00;;;;;;7369997;19;20023;-61
2023/05/05 09:58:25;;;;;;;16.15;14.63;;;22.90;96.30;;;;;;7371546;19;20102;-62
2023/05/05 10:00:52;;;;;;;15.63;14.02;;;22.70;95.50;;;;;;7370871;19;20042;-62
2023/05/05 10:03:19;;;;;;;16.80;14.00;;;22.90;94.40;;;;;;7369479;19;20139;-62
2023/05/05 10:05:51;;;;;;;16.15;14.50;;;22.60;96.70;;;;;;7374350;19;20809;-62
2023/05/05 10:08:25;;;;;;;16.27;14.70;;;22.60;98.70;;;;;;7375731;19;20039;-64
2023/05/05 10:11:03;;;;;;;16.90;15.07;;;22.80;98.50;;;;;;7374731;19;20018;-62
2023/05/05 10:13:31;;;;;;;15.65;14.05;;;23.20;95.50;;;;;;7371820;19;20042;-61
2023/05/05 10:15:59;;;;;;;15.00;12.50;;;24.00;87.50;;;;;;7376440;19;20687;-62
2023/05/05 10:18:27;;;;;;;15.85;13.45;;;24.10;79.20;;;;;;7371666;19;20616;-62
2023/05/05 10:21:02;;;;;;;13.20;11.82;;;24.10;76.70;;;;;;7377520;19;21158;-61
2023/05/05 10:23:46;;;;;;;15.07;13.57;;;24.10;75.10;;;;;;7375697;19;20033;-61
2023/05/05 10:26:15;;;;;;;15.07;13.63;;;23.60;78.10;;;;;;7375540;19;20409;-61
2023/05/05 10:28:48;;;;;;;14.05;12.55;;;23.50;78.40;;;;;;7376803;19;20489;-62
2023/05/05 10:31:38;;;;;;;13.48;12.10;;;23.40;82.40;;;;;;7373749;19;20018;-61
2023/05/05 10:34:20;;;;;;;14.85;12.25;;;23.40;86.80;;;;;;7376344;19;20038;-61
2023/05/05 10:36:48;;;;;;;13.43;12.00;;;23.70;86.50;;;;;;7374126;19;20033;-62
2023/05/05 10:39:18;;;;;;;13.02;11.57;;;23.60;83.70;;;;;;7372381;19;20530;-61
2023/05/05 10:41:47;;;;;;;13.40;10.60;;;23.50;81.30;;;;;;7377671;19;20045;-61
2023/05/05 10:44:15;;;;;;;11.48;9.98;;;23.40;82.20;;;;;;7372821;19;20064;-61
2023/05/05 10:46:42;;;;;;;12.07;8.23;;;23.70;77.80;;;;;;7370940;19;20096;-61
2023/05/05 10:49:34;;;;;;;9.40;6.50;;;23.70;78.50;;;;;;7372428;19;20074;-66
2023/05/05 10:52:36;;;;;;;9.32;6.07;;;24.40;69.90;;;;;;7374310;19;20014;-67
2023/05/05 10:55:14;;;;;;;7.40;5.43;;;24.50;65.50;;;;;;7372428;19;21579;-61
2023/05/05 10:57:43;;;;;;;8.98;5.05;;;24.80;66.30;;;;;;7375036;19;20376;-61
2023/05/05 11:00:30;;;;;;;7.35;4.80;;;24.90;64.70;;;;;;7372676;19;20027;-67
2023/05/05 11:03:25;;;;;;;8.45;4.95;;;25.10;64.10;;;;;;7374168;19;20030;-67
2023/05/05 11:06:06;;;;;;;6.43;4.75;;;25.40;61.40;;;;;;7373970;19;20374;-67
2023/05/05 11:08:34;;;;;;;7.13;5.00;;;24.80;61.80;;;;;;7376300;19;20010;-66
2023/05/05 11:11:02;;;;;;;7.55;4.80;;;24.70;62.70;;;;;;7375369;19;20026;-66
2023/05/05 11:13:28;;;;;;;8.45;5.65;;;24.30;63.40;;;;;;7371901;19;20485;-67
2023/05/05 11:16:00;;;;;;;6.90;5.30;;;24.00;64.30;;;;;;7372190;19;20018;-67
2023/05/05 11:18:38;;;;;;;11.05;5.38;;;23.50;64.80;;;;;;7374190;19;20022;-66
2023/05/05 11:21:16;;;;;;;9.85;5.68;;;23.80;65.80;;;;;;7374587;19;20052;-66
2023/05/05 11:23:48;;;;;;;8.95;5.60;;;23.70;66.70;;;;;;7377463;19;20829;-66
2023/05/05 11:26:15;;;;;;;9.45;4.82;;;23.80;67.20;;;;;;7372665;19;20054;-66
2023/05/05 11:29:03;;;;;;;8.15;4.57;;;24.00;66.20;;;;;;7378039;19;20545;-66
2023/05/05 11:31:31;;;;;;;6.65;4.80;;;23.80;64.80;;;;;;7374632;19;20764;-66
2023/05/05 11:34:23;;;;;;;9.00;5.60;;;24.00;64.90;;;;;;7376185;19;20014;-66
2023/05/05 11:36:51;;;;;;;7.45;5.15;;;23.60;66.20;;;;;;7376983;19;20991;-66
2023/05/05 11:39:34;;;;;;;8.18;5.53;;;23.50;68.00;;;;;;7373928;19;21610;-66
2023/05/05 11:42:11;;;;;;;7.15;5.65;;;23.40;67.60;;;;;;7374145;19;20063;-66
2023/05/05 11:44:37;;;;;;;6.78;5.65;;;23.20;68.20;;;;;;7373938;19;20027;-61
2023/05/05 11:47:04;;;;;;;8.77;6.22;;;23.00;69.70;;;;;;7371354;19;20026;-65
2023/05/05 11:49:37;;;;;;;9.85;6.05;;;22.90;71.70;;;;;;7375069;19;20786;-66
2023/05/05 11:52:08;;;;;;;7.60;5.60;;;23.10;72.80;;;;;;7365874;19;20026;-66
2023/05/05 11:54:37;;;;;;;7.55;5.38;;;22.80;74.10;;;;;;7374267;19;20124;-66
2023/05/05 11:57:06;;;;;;;8.13;4.82;;;22.70;75.20;;;;;;7370738;19;20094;-61
2023/05/05 11:59:35;;;;;;;8.45;5.18;;;22.70;75.20;;;;;;7373676;19;20018;-61
2023/05/05 12:02:03;;;;;;;11.13;5.93;;;22.80;75.90;;;;;;7371653;19;20018;-62
2023/05/05 12:04:30;;;;;;;9.70;6.65;;;22.60;82.20;;;;;;7372489;19;20026;-62
2023/05/05 12:07:00;;;;;;;9.88;6.57;;;22.40;83.20;;;;;;7369359;19;20497;-62
2023/05/05 12:09:27;;;;;;;10.98;6.50;;;22.20;88.50;;;;;;7373049;19;20038;-62
2023/05/05 12:11:55;;;;;;;8.20;5.63;;;22.20;92.50;;;;;;7370300;19;20025;-62
2023/05/05 12:14:23;;;;;;;9.20;6.38;;;22.30;93.00;;;;;;7374388;19;20086;-63
2023/05/05 12:17:05;;;;;;;7.47;6.03;;;22.00;93.20;;;;;;7369875;19;20019;-63
2023/05/05 12:19:35;;;;;;;8.50;5.72;;;22.10;92.80;;;;;;7370335;19;20018;-63
2023/05/05 12:22:03;;;;;;;8.30;5.22;;;21.90;96.90;;;;;;7366900;19;20023;-61
2023/05/05 12:24:29;;;;;;;7.82;5.22;;;21.60;96.80;;;;;;7370326;19;20481;-62
2023/05/05 12:27:09;;;;;;;24.73;22.05;;;21.60;97.90;;;;;;7366490;19;20909;-63
2023/05/05 12:29:36;;;;;;;16.75;11.85;;;21.60;99.80;;;;;;7366140;19;20039;-62
2023/05/05 12:32:03;;;;;;;10.32;5.72;;;21.50;99.90;;;;;;7365518;19;20034;-62
2023/05/05 12:34:31;;;;;;;11.40;6.82;;;21.30;99.90;;;;;;7365596;19;20026;-60
2023/05/05 12:36:57;;;;;;;7.50;5.03;;;21.30;99.90;;;;;;7365252;19;20018;-61
2023/05/05 12:39:36;;;;;;;7.18;5.15;;;21.10;99.90;;;;;;7362002;19;20092;-60
2023/05/05 12:42:04;;;;;;;7.90;5.20;;;20.90;99.90;;;;;;7361364;19;20018;-60
2023/05/05 12:44:35;;;;;;;7.63;4.53;;;20.70;99.90;;;;;;7365062;19;20022;-60
2023/05/05 12:47:01;;;;;;;7.53;4.72;;;20.60;99.90;;;;;;7369718;19;20881;-60
2023/05/05 12:49:27;;;;;;;8.88;5.40;;;20.30;99.90;;;;;;7368279;19;20483;-60
2023/05/05 12:51:55;;;;;;;7.82;4.55;;;20.10;99.90;;;;;;7369772;19;20025;-62